Terminal Aerodrome Forecast
Issued by NWS

Home | Current Version | Previous Version | Text Only | Print | Product List | Glossary On
Versions: 1 2 3 4 5 6 7 8 9 10 11 12 13 14 15 16 17 18 19 20 21
000
FTUS42 TJSJ 121700
TAFJBQ
TAF
TJBQ 121722Z 1218/1318 09015G24KT P6SM VCTS SCT020CB BKN040
     FM122300 09006KT P6SM SCT030
     FM131400 10012G18KT P6SM FEW020=

USA.gov is the U.S. government's official web portal to all federal, state and local government web resources and services.